sensor_id;sensor_type;location;lat;lon;timestamp;P1;durP1;ratioP1;P2;durP2;ratioP2
68438;SDS011;55421;51.600;5.718;2023-06-22T00:00:58;8.90;;;6.30;;
68438;SDS011;55421;51.600;5.718;2023-06-22T00:03:32;7.70;;;6.00;;
68438;SDS011;55421;51.600;5.718;2023-06-22T00:05:58;9.10;;;6.00;;
68438;SDS011;55421;51.600;5.718;2023-06-22T00:08:25;8.50;;;6.80;;
68438;SDS011;55421;51.600;5.718;2023-06-22T00:10:52;8.90;;;6.20;;
68438;SDS011;55421;51.600;5.718;2023-06-22T00:13:18;10.20;;;6.80;;
68438;SDS011;55421;51.600;5.718;2023-06-22T00:15:45;8.50;;;6.10;;
68438;SDS011;55421;51.600;5.718;2023-06-22T00:18:12;10.10;;;6.80;;
68438;SDS011;55421;51.600;5.718;2023-06-22T00:20:41;8.50;;;7.00;;
68438;SDS011;55421;51.600;5.718;2023-06-22T00:23:08;10.20;;;7.10;;
68438;SDS011;55421;51.600;5.718;2023-06-22T00:25:38;9.60;;;6.90;;
68438;SDS011;55421;51.600;5.718;2023-06-22T00:28:08;10.40;;;7.50;;
68438;SDS011;55421;51.600;5.718;2023-06-22T00:30:35;10.20;;;7.10;;
68438;SDS011;55421;51.600;5.718;2023-06-22T00:33:02;9.10;;;8.10;;
68438;SDS011;55421;51.600;5.718;2023-06-22T00:35:29;12.30;;;8.60;;
68438;SDS011;55421;51.600;5.718;2023-06-22T00:37:56;11.50;;;8.30;;
68438;SDS011;55421;51.600;5.718;2023-06-22T00:40:33;9.80;;;8.30;;
68438;SDS011;55421;51.600;5.718;2023-06-22T00:43:00;9.20;;;8.30;;
68438;SDS011;55421;51.600;5.718;2023-06-22T00:45:27;10.80;;;8.40;;
68438;SDS011;55421;51.600;5.718;2023-06-22T00:47:57;9.90;;;8.40;;
68438;SDS011;55421;51.600;5.718;2023-06-22T00:53:02;11.10;;;8.80;;
68438;SDS011;55421;51.600;5.718;2023-06-22T00:55:52;12.70;;;9.40;;
68438;SDS011;55421;51.600;5.718;2023-06-22T00:58:19;11.60;;;9.20;;
68438;SDS011;55421;51.600;5.718;2023-06-22T01:00:48;10.50;;;9.30;;
68438;SDS011;55421;51.600;5.718;2023-06-22T01:03:15;11.60;;;9.10;;
68438;SDS011;55421;51.600;5.718;2023-06-22T01:05:43;10.40;;;9.00;;
68438;SDS011;55421;51.600;5.718;2023-06-22T01:08:33;11.80;;;9.60;;
68438;SDS011;55421;51.600;5.718;2023-06-22T01:11:20;16.60;;;9.60;;
68438;SDS011;55421;51.600;5.718;2023-06-22T01:14:00;13.80;;;10.10;;
68438;SDS011;55421;51.600;5.718;2023-06-22T01:16:34;14.50;;;10.40;;
68438;SDS011;55421;51.600;5.718;2023-06-22T01:19:35;13.70;;;10.60;;
68438;SDS011;55421;51.600;5.718;2023-06-22T01:22:08;13.80;;;10.00;;
68438;SDS011;55421;51.600;5.718;2023-06-22T01:25:31;13.00;;;10.20;;
68438;SDS011;55421;51.600;5.718;2023-06-22T01:27:55;13.40;;;10.40;;
68438;SDS011;55421;51.600;5.718;2023-06-22T01:30:28;13.30;;;9.90;;
68438;SDS011;55421;51.600;5.718;2023-06-22T01:32:57;14.80;;;10.40;;
68438;SDS011;55421;51.600;5.718;2023-06-22T01:35:25;16.40;;;10.50;;
68438;SDS011;55421;51.600;5.718;2023-06-22T01:37:53;12.50;;;10.30;;
68438;SDS011;55421;51.600;5.718;2023-06-22T01:40:20;13.80;;;11.00;;
68438;SDS011;55421;51.600;5.718;2023-06-22T01:42:48;14.40;;;9.90;;
68438;SDS011;55421;51.600;5.718;2023-06-22T01:45:17;13.20;;;10.90;;
68438;SDS011;55421;51.600;5.718;2023-06-22T01:47:45;16.10;;;12.20;;
68438;SDS011;55421;51.600;5.718;2023-06-22T01:50:12;13.00;;;10.70;;
68438;SDS011;55421;51.600;5.718;2023-06-22T01:52:38;13.90;;;11.10;;
68438;SDS011;55421;51.600;5.718;2023-06-22T01:55:05;11.80;;;10.50;;
68438;SDS011;55421;51.600;5.718;2023-06-22T01:57:34;13.70;;;10.70;;
68438;SDS011;55421;51.600;5.718;2023-06-22T02:00:05;14.70;;;10.40;;
68438;SDS011;55421;51.600;5.718;2023-06-22T02:02:59;12.40;;;11.10;;
68438;SDS011;55421;51.600;5.718;2023-06-22T02:05:36;13.40;;;11.30;;
68438;SDS011;55421;51.600;5.718;2023-06-22T02:08:55;13.90;;;11.50;;
68438;SDS011;55421;51.600;5.718;2023-06-22T02:11:22;14.30;;;11.10;;
68438;SDS011;55421;51.600;5.718;2023-06-22T02:13:53;15.10;;;11.50;;
68438;SDS011;55421;51.600;5.718;2023-06-22T02:16:23;13.00;;;11.30;;
68438;SDS011;55421;51.600;5.718;2023-06-22T02:18:51;14.20;;;10.50;;
68438;SDS011;55421;51.600;5.718;2023-06-22T02:21:19;15.40;;;11.60;;
68438;SDS011;55421;51.600;5.718;2023-06-22T02:23:46;14.00;;;10.90;;
68438;SDS011;55421;51.600;5.718;2023-06-22T02:26:15;14.50;;;10.90;;
68438;SDS011;55421;51.600;5.718;2023-06-22T02:28:43;13.00;;;10.70;;
68438;SDS011;55421;51.600;5.718;2023-06-22T02:31:11;13.50;;;10.70;;
68438;SDS011;55421;51.600;5.718;2023-06-22T02:33:38;13.00;;;10.40;;
68438;SDS011;55421;51.600;5.718;2023-06-22T02:36:04;13.90;;;11.00;;
68438;SDS011;55421;51.600;5.718;2023-06-22T02:38:31;12.60;;;10.90;;
68438;SDS011;55421;51.600;5.718;2023-06-22T02:41:00;13.00;;;11.50;;
68438;SDS011;55421;51.600;5.718;2023-06-22T02:43:27;15.60;;;12.00;;
68438;SDS011;55421;51.600;5.718;2023-06-22T02:45:55;14.80;;;12.00;;
68438;SDS011;55421;51.600;5.718;2023-06-22T02:48:21;14.30;;;10.70;;
68438;SDS011;55421;51.600;5.718;2023-06-22T02:50:48;14.20;;;11.30;;
68438;SDS011;55421;51.600;5.718;2023-06-22T02:53:14;16.20;;;11.20;;
68438;SDS011;55421;51.600;5.718;2023-06-22T02:55:41;14.20;;;11.20;;
68438;SDS011;55421;51.600;5.718;2023-06-22T02:58:07;13.50;;;11.40;;
68438;SDS011;55421;51.600;5.718;2023-06-22T03:00:34;14.00;;;11.70;;
68438;SDS011;55421;51.600;5.718;2023-06-22T03:03:01;14.60;;;11.40;;
68438;SDS011;55421;51.600;5.718;2023-06-22T03:05:27;14.30;;;11.50;;
68438;SDS011;55421;51.600;5.718;2023-06-22T03:07:54;13.80;;;11.10;;
68438;SDS011;55421;51.600;5.718;2023-06-22T03:10:21;16.20;;;11.70;;
68438;SDS011;55421;51.600;5.718;2023-06-22T03:12:47;14.30;;;10.80;;
68438;SDS011;55421;51.600;5.718;2023-06-22T03:15:14;21.90;;;11.70;;
68438;SDS011;55421;51.600;5.718;2023-06-22T03:17:40;13.50;;;11.50;;
68438;SDS011;55421;51.600;5.718;2023-06-22T03:20:08;18.10;;;12.40;;
68438;SDS011;55421;51.600;5.718;2023-06-22T03:22:38;15.70;;;12.60;;
68438;SDS011;55421;51.600;5.718;2023-06-22T03:25:06;22.10;;;13.20;;
68438;SDS011;55421;51.600;5.718;2023-06-22T03:27:42;19.30;;;13.30;;
68438;SDS011;55421;51.600;5.718;2023-06-22T03:30:12;19.80;;;15.10;;
68438;SDS011;55421;51.600;5.718;2023-06-22T03:32:39;17.20;;;13.90;;
68438;SDS011;55421;51.600;5.718;2023-06-22T03:35:06;18.40;;;14.20;;
68438;SDS011;55421;51.600;5.718;2023-06-22T03:37:33;19.10;;;13.80;;
68438;SDS011;55421;51.600;5.718;2023-06-22T03:39:59;17.40;;;14.00;;
68438;SDS011;55421;51.600;5.718;2023-06-22T03:42:26;19.00;;;14.20;;
68438;SDS011;55421;51.600;5.718;2023-06-22T03:44:52;18.20;;;14.70;;
68438;SDS011;55421;51.600;5.718;2023-06-22T03:47:19;18.10;;;13.60;;
68438;SDS011;55421;51.600;5.718;2023-06-22T03:49:46;18.40;;;13.10;;
68438;SDS011;55421;51.600;5.718;2023-06-22T03:52:12;14.90;;;11.00;;
68438;SDS011;55421;51.600;5.718;2023-06-22T03:54:39;16.00;;;11.70;;
68438;SDS011;55421;51.600;5.718;2023-06-22T03:57:05;14.00;;;12.10;;
68438;SDS011;55421;51.600;5.718;2023-06-22T03:59:32;15.30;;;12.40;;
68438;SDS011;55421;51.600;5.718;2023-06-22T04:01:59;13.80;;;12.30;;
68438;SDS011;55421;51.600;5.718;2023-06-22T04:04:25;16.10;;;12.70;;
68438;SDS011;55421;51.600;5.718;2023-06-22T04:06:52;16.70;;;13.00;;
68438;SDS011;55421;51.600;5.718;2023-06-22T04:09:18;14.80;;;12.00;;
68438;SDS011;55421;51.600;5.718;2023-06-22T04:11:45;13.70;;;11.60;;
68438;SDS011;55421;51.600;5.718;2023-06-22T04:14:12;18.90;;;11.60;;
68438;SDS011;55421;51.600;5.718;2023-06-22T04:16:38;15.20;;;11.80;;
68438;SDS011;55421;51.600;5.718;2023-06-22T04:19:05;16.30;;;12.00;;
68438;SDS011;55421;51.600;5.718;2023-06-22T04:21:31;17.60;;;12.20;;
68438;SDS011;55421;51.600;5.718;2023-06-22T04:23:58;15.50;;;12.10;;
68438;SDS011;55421;51.600;5.718;2023-06-22T04:26:24;14.60;;;11.60;;
68438;SDS011;55421;51.600;5.718;2023-06-22T04:28:51;14.10;;;11.60;;
68438;SDS011;55421;51.600;5.718;2023-06-22T04:31:21;14.00;;;11.40;;
68438;SDS011;55421;51.600;5.718;2023-06-22T04:33:53;17.00;;;11.90;;
68438;SDS011;55421;51.600;5.718;2023-06-22T04:36:20;17.00;;;12.40;;
68438;SDS011;55421;51.600;5.718;2023-06-22T04:38:47;19.20;;;12.70;;
68438;SDS011;55421;51.600;5.718;2023-06-22T04:41:14;16.50;;;11.60;;
68438;SDS011;55421;51.600;5.718;2023-06-22T04:43:49;15.70;;;11.40;;
68438;SDS011;55421;51.600;5.718;2023-06-22T04:46:20;19.50;;;13.10;;
68438;SDS011;55421;51.600;5.718;2023-06-22T04:48:46;17.00;;;11.90;;
68438;SDS011;55421;51.600;5.718;2023-06-22T04:51:13;14.60;;;12.40;;
68438;SDS011;55421;51.600;5.718;2023-06-22T04:53:39;15.60;;;13.30;;
68438;SDS011;55421;51.600;5.718;2023-06-22T04:56:08;15.90;;;13.10;;
68438;SDS011;55421;51.600;5.718;2023-06-22T04:58:34;15.60;;;12.50;;
68438;SDS011;55421;51.600;5.718;2023-06-22T05:01:01;14.80;;;11.90;;
68438;SDS011;55421;51.600;5.718;2023-06-22T05:03:27;14.20;;;11.80;;
68438;SDS011;55421;51.600;5.718;2023-06-22T05:05:54;17.50;;;13.00;;
68438;SDS011;55421;51.600;5.718;2023-06-22T05:08:20;19.40;;;12.60;;
68438;SDS011;55421;51.600;5.718;2023-06-22T05:10:47;17.50;;;13.40;;
68438;SDS011;55421;51.600;5.718;2023-06-22T05:13:13;15.00;;;13.20;;
68438;SDS011;55421;51.600;5.718;2023-06-22T05:15:40;16.90;;;13.60;;
68438;SDS011;55421;51.600;5.718;2023-06-22T05:18:06;17.30;;;13.30;;
68438;SDS011;55421;51.600;5.718;2023-06-22T05:20:33;18.00;;;12.80;;
68438;SDS011;55421;51.600;5.718;2023-06-22T05:23:02;16.10;;;12.50;;
68438;SDS011;55421;51.600;5.718;2023-06-22T05:25:29;18.40;;;13.20;;
68438;SDS011;55421;51.600;5.718;2023-06-22T05:27:56;17.10;;;13.20;;
68438;SDS011;55421;51.600;5.718;2023-06-22T05:30:23;17.60;;;13.80;;
68438;SDS011;55421;51.600;5.718;2023-06-22T05:32:49;17.20;;;13.30;;
68438;SDS011;55421;51.600;5.718;2023-06-22T05:35:16;18.50;;;14.70;;
68438;SDS011;55421;51.600;5.718;2023-06-22T05:37:42;19.20;;;14.90;;
68438;SDS011;55421;51.600;5.718;2023-06-22T05:40:09;22.50;;;15.10;;
68438;SDS011;55421;51.600;5.718;2023-06-22T05:42:36;17.00;;;14.30;;
68438;SDS011;55421;51.600;5.718;2023-06-22T05:45:03;16.30;;;14.00;;
68438;SDS011;55421;51.600;5.718;2023-06-22T05:47:30;19.40;;;14.70;;
68438;SDS011;55421;51.600;5.718;2023-06-22T05:49:57;21.80;;;15.60;;
68438;SDS011;55421;51.600;5.718;2023-06-22T05:52:24;20.30;;;15.30;;
68438;SDS011;55421;51.600;5.718;2023-06-22T05:54:51;21.90;;;15.60;;
68438;SDS011;55421;51.600;5.718;2023-06-22T05:57:17;21.00;;;15.40;;
68438;SDS011;55421;51.600;5.718;2023-06-22T05:59:43;21.30;;;15.00;;
68438;SDS011;55421;51.600;5.718;2023-06-22T06:02:10;18.40;;;14.00;;
68438;SDS011;55421;51.600;5.718;2023-06-22T06:04:37;19.80;;;14.70;;
68438;SDS011;55421;51.600;5.718;2023-06-22T06:07:03;20.10;;;14.80;;
68438;SDS011;55421;51.600;5.718;2023-06-22T06:09:30;22.30;;;16.00;;
68438;SDS011;55421;51.600;5.718;2023-06-22T06:11:56;24.20;;;16.80;;
68438;SDS011;55421;51.600;5.718;2023-06-22T06:14:23;19.70;;;16.00;;
68438;SDS011;55421;51.600;5.718;2023-06-22T06:16:49;19.50;;;16.80;;
68438;SDS011;55421;51.600;5.718;2023-06-22T06:19:16;21.70;;;16.70;;
68438;SDS011;55421;51.600;5.718;2023-06-22T06:21:43;21.20;;;16.30;;
68438;SDS011;55421;51.600;5.718;2023-06-22T06:24:09;20.40;;;16.60;;
68438;SDS011;55421;51.600;5.718;2023-06-22T06:26:36;21.50;;;16.60;;
68438;SDS011;55421;51.600;5.718;2023-06-22T06:29:02;21.60;;;17.00;;
68438;SDS011;55421;51.600;5.718;2023-06-22T06:31:29;19.70;;;17.10;;
68438;SDS011;55421;51.600;5.718;2023-06-22T06:33:56;23.10;;;17.70;;
68438;SDS011;55421;51.600;5.718;2023-06-22T06:36:23;21.20;;;17.00;;
68438;SDS011;55421;51.600;5.718;2023-06-22T06:38:49;23.80;;;17.20;;
68438;SDS011;55421;51.600;5.718;2023-06-22T06:41:16;21.30;;;16.80;;
68438;SDS011;55421;51.600;5.718;2023-06-22T06:43:42;27.70;;;16.90;;
68438;SDS011;55421;51.600;5.718;2023-06-22T06:46:09;19.10;;;16.80;;
68438;SDS011;55421;51.600;5.718;2023-06-22T06:48:36;19.60;;;17.40;;
68438;SDS011;55421;51.600;5.718;2023-06-22T06:51:02;23.50;;;17.80;;
68438;SDS011;55421;51.600;5.718;2023-06-22T06:53:29;21.90;;;18.00;;
68438;SDS011;55421;51.600;5.718;2023-06-22T06:55:56;22.60;;;18.60;;
68438;SDS011;55421;51.600;5.718;2023-06-22T06:58:23;22.10;;;18.40;;
68438;SDS011;55421;51.600;5.718;2023-06-22T07:00:49;21.00;;;17.10;;
68438;SDS011;55421;51.600;5.718;2023-06-22T07:03:16;21.60;;;17.60;;
68438;SDS011;55421;51.600;5.718;2023-06-22T07:05:42;23.00;;;18.30;;
68438;SDS011;55421;51.600;5.718;2023-06-22T07:08:09;19.10;;;17.00;;
68438;SDS011;55421;51.600;5.718;2023-06-22T07:10:36;21.70;;;18.70;;
68438;SDS011;55421;51.600;5.718;2023-06-22T07:13:03;24.30;;;19.20;;
68438;SDS011;55421;51.600;5.718;2023-06-22T07:15:29;25.50;;;18.60;;
68438;SDS011;55421;51.600;5.718;2023-06-22T07:17:56;21.90;;;18.90;;
68438;SDS011;55421;51.600;5.718;2023-06-22T07:20:22;21.00;;;17.60;;
68438;SDS011;55421;51.600;5.718;2023-06-22T07:22:49;25.20;;;17.90;;
68438;SDS011;55421;51.600;5.718;2023-06-22T07:25:15;21.70;;;17.40;;
68438;SDS011;55421;51.600;5.718;2023-06-22T07:27:57;22.60;;;16.50;;
68438;SDS011;55421;51.600;5.718;2023-06-22T07:30:25;22.30;;;17.90;;
68438;SDS011;55421;51.600;5.718;2023-06-22T07:32:53;19.70;;;17.40;;
68438;SDS011;55421;51.600;5.718;2023-06-22T07:35:19;22.90;;;17.70;;
68438;SDS011;55421;51.600;5.718;2023-06-22T07:37:46;22.10;;;18.00;;
68438;SDS011;55421;51.600;5.718;2023-06-22T07:40:13;25.10;;;17.90;;
68438;SDS011;55421;51.600;5.718;2023-06-22T07:42:39;22.00;;;17.50;;
68438;SDS011;55421;51.600;5.718;2023-06-22T07:45:07;22.90;;;17.60;;
68438;SDS011;55421;51.600;5.718;2023-06-22T07:47:34;21.10;;;17.00;;
68438;SDS011;55421;51.600;5.718;2023-06-22T07:50:02;21.90;;;17.40;;
68438;SDS011;55421;51.600;5.718;2023-06-22T07:52:30;20.40;;;17.40;;
68438;SDS011;55421;51.600;5.718;2023-06-22T07:54:57;22.80;;;17.50;;
68438;SDS011;55421;51.600;5.718;2023-06-22T07:57:23;24.30;;;17.80;;
68438;SDS011;55421;51.600;5.718;2023-06-22T07:59:58;25.20;;;17.60;;
68438;SDS011;55421;51.600;5.718;2023-06-22T08:02:32;23.70;;;19.40;;
68438;SDS011;55421;51.600;5.718;2023-06-22T08:04:58;21.40;;;18.30;;
68438;SDS011;55421;51.600;5.718;2023-06-22T08:07:25;23.70;;;18.90;;
68438;SDS011;55421;51.600;5.718;2023-06-22T08:09:58;21.40;;;17.70;;
68438;SDS011;55421;51.600;5.718;2023-06-22T08:12:25;20.90;;;17.90;;
68438;SDS011;55421;51.600;5.718;2023-06-22T08:14:51;19.10;;;17.00;;
68438;SDS011;55421;51.600;5.718;2023-06-22T08:17:18;22.30;;;16.80;;
68438;SDS011;55421;51.600;5.718;2023-06-22T08:19:44;17.30;;;15.30;;
68438;SDS011;55421;51.600;5.718;2023-06-22T08:22:11;17.80;;;15.90;;
68438;SDS011;55421;51.600;5.718;2023-06-22T08:24:37;20.40;;;17.00;;
68438;SDS011;55421;51.600;5.718;2023-06-22T08:27:07;18.90;;;16.30;;
68438;SDS011;55421;51.600;5.718;2023-06-22T08:29:35;18.70;;;16.30;;
68438;SDS011;55421;51.600;5.718;2023-06-22T08:32:03;19.70;;;16.50;;
68438;SDS011;55421;51.600;5.718;2023-06-22T08:34:30;19.50;;;16.20;;
68438;SDS011;55421;51.600;5.718;2023-06-22T08:36:56;25.20;;;17.70;;
68438;SDS011;55421;51.600;5.718;2023-06-22T08:39:23;25.50;;;17.30;;
68438;SDS011;55421;51.600;5.718;2023-06-22T08:41:49;20.20;;;18.00;;
68438;SDS011;55421;51.600;5.718;2023-06-22T08:44:17;20.20;;;17.00;;
68438;SDS011;55421;51.600;5.718;2023-06-22T08:46:45;21.50;;;16.70;;
68438;SDS011;55421;51.600;5.718;2023-06-22T08:49:12;20.30;;;16.50;;
68438;SDS011;55421;51.600;5.718;2023-06-22T08:51:38;22.60;;;17.30;;
68438;SDS011;55421;51.600;5.718;2023-06-22T08:54:05;20.20;;;16.60;;
68438;SDS011;55421;51.600;5.718;2023-06-22T08:56:31;20.40;;;17.30;;
68438;SDS011;55421;51.600;5.718;2023-06-22T08:58:58;19.40;;;16.70;;
68438;SDS011;55421;51.600;5.718;2023-06-22T09:01:25;18.20;;;16.00;;
68438;SDS011;55421;51.600;5.718;2023-06-22T09:03:51;19.40;;;16.10;;
68438;SDS011;55421;51.600;5.718;2023-06-22T09:06:21;19.20;;;16.10;;
68438;SDS011;55421;51.600;5.718;2023-06-22T09:08:48;19.60;;;16.00;;
68438;SDS011;55421;51.600;5.718;2023-06-22T09:11:15;18.00;;;16.10;;
68438;SDS011;55421;51.600;5.718;2023-06-22T09:13:41;21.30;;;16.40;;
68438;SDS011;55421;51.600;5.718;2023-06-22T09:16:08;19.60;;;16.90;;
68438;SDS011;55421;51.600;5.718;2023-06-22T09:18:35;18.30;;;15.40;;
68438;SDS011;55421;51.600;5.718;2023-06-22T09:21:02;19.10;;;15.90;;
68438;SDS011;55421;51.600;5.718;2023-06-22T09:23:29;20.20;;;15.90;;
68438;SDS011;55421;51.600;5.718;2023-06-22T09:25:55;18.80;;;16.60;;
68438;SDS011;55421;51.600;5.718;2023-06-22T09:28:22;17.30;;;15.40;;
68438;SDS011;55421;51.600;5.718;2023-06-22T09:30:48;20.40;;;16.80;;
68438;SDS011;55421;51.600;5.718;2023-06-22T09:33:15;18.80;;;16.50;;
68438;SDS011;55421;51.600;5.718;2023-06-22T09:35:41;27.30;;;15.70;;
68438;SDS011;55421;51.600;5.718;2023-06-22T09:38:08;20.40;;;16.70;;
68438;SDS011;55421;51.600;5.718;2023-06-22T09:40:34;21.50;;;15.80;;
68438;SDS011;55421;51.600;5.718;2023-06-22T09:43:06;19.00;;;16.00;;
68438;SDS011;55421;51.600;5.718;2023-06-22T09:45:32;18.20;;;15.40;;
68438;SDS011;55421;51.600;5.718;2023-06-22T09:47:59;18.00;;;16.00;;
68438;SDS011;55421;51.600;5.718;2023-06-22T09:50:25;19.70;;;15.80;;
68438;SDS011;55421;51.600;5.718;2023-06-22T09:52:52;21.20;;;15.90;;
68438;SDS011;55421;51.600;5.718;2023-06-22T09:55:21;19.40;;;16.20;;
68438;SDS011;55421;51.600;5.718;2023-06-22T09:57:49;23.60;;;16.50;;
68438;SDS011;55421;51.600;5.718;2023-06-22T10:00:16;18.20;;;16.00;;
68438;SDS011;55421;51.600;5.718;2023-06-22T10:02:46;17.90;;;16.00;;
68438;SDS011;55421;51.600;5.718;2023-06-22T10:05:16;18.00;;;16.10;;
68438;SDS011;55421;51.600;5.718;2023-06-22T10:07:43;17.80;;;15.40;;
68438;SDS011;55421;51.600;5.718;2023-06-22T10:10:11;19.90;;;15.90;;
68438;SDS011;55421;51.600;5.718;2023-06-22T10:12:47;20.90;;;15.40;;
68438;SDS011;55421;51.600;5.718;2023-06-22T10:15:21;19.90;;;15.60;;
68438;SDS011;55421;51.600;5.718;2023-06-22T10:17:47;18.80;;;15.30;;
68438;SDS011;55421;51.600;5.718;2023-06-22T10:20:14;17.10;;;15.20;;
68438;SDS011;55421;51.600;5.718;2023-06-22T10:22:43;16.60;;;13.80;;
68438;SDS011;55421;51.600;5.718;2023-06-22T10:25:12;19.30;;;14.40;;
68438;SDS011;55421;51.600;5.718;2023-06-22T10:27:39;18.20;;;15.30;;
68438;SDS011;55421;51.600;5.718;2023-06-22T10:30:07;21.20;;;16.80;;
68438;SDS011;55421;51.600;5.718;2023-06-22T10:32:42;17.90;;;15.10;;
68438;SDS011;55421;51.600;5.718;2023-06-22T10:35:09;20.00;;;15.10;;
68438;SDS011;55421;51.600;5.718;2023-06-22T10:37:46;16.80;;;15.00;;
68438;SDS011;55421;51.600;5.718;2023-06-22T10:40:14;18.30;;;15.00;;
68438;SDS011;55421;51.600;5.718;2023-06-22T10:42:41;16.90;;;15.00;;
68438;SDS011;55421;51.600;5.718;2023-06-22T10:45:08;16.70;;;13.90;;
68438;SDS011;55421;51.600;5.718;2023-06-22T10:47:35;17.40;;;15.10;;
68438;SDS011;55421;51.600;5.718;2023-06-22T10:50:03;18.60;;;14.50;;
68438;SDS011;55421;51.600;5.718;2023-06-22T10:52:30;20.00;;;15.70;;
68438;SDS011;55421;51.600;5.718;2023-06-22T10:54:57;17.30;;;14.10;;
68438;SDS011;55421;51.600;5.718;2023-06-22T10:57:23;19.50;;;15.10;;
68438;SDS011;55421;51.600;5.718;2023-06-22T10:59:50;16.60;;;15.00;;
68438;SDS011;55421;51.600;5.718;2023-06-22T11:02:17;17.60;;;14.80;;
68438;SDS011;55421;51.600;5.718;2023-06-22T11:04:43;14.50;;;12.20;;
68438;SDS011;55421;51.600;5.718;2023-06-22T11:07:10;16.10;;;13.50;;
68438;SDS011;55421;51.600;5.718;2023-06-22T11:09:36;16.60;;;13.50;;
68438;SDS011;55421;51.600;5.718;2023-06-22T11:12:04;20.70;;;15.60;;
68438;SDS011;55421;51.600;5.718;2023-06-22T11:14:31;21.20;;;15.70;;
68438;SDS011;55421;51.600;5.718;2023-06-22T11:16:59;18.10;;;15.40;;
68438;SDS011;55421;51.600;5.718;2023-06-22T11:19:26;19.80;;;15.80;;
68438;SDS011;55421;51.600;5.718;2023-06-22T11:21:52;21.60;;;17.00;;
68438;SDS011;55421;51.600;5.718;2023-06-22T11:24:19;20.60;;;17.40;;
68438;SDS011;55421;51.600;5.718;2023-06-22T11:26:45;20.10;;;15.10;;
68438;SDS011;55421;51.600;5.718;2023-06-22T11:29:12;20.80;;;17.50;;
68438;SDS011;55421;51.600;5.718;2023-06-22T11:31:38;24.10;;;16.60;;
68438;SDS011;55421;51.600;5.718;2023-06-22T11:34:05;20.40;;;15.00;;
68438;SDS011;55421;51.600;5.718;2023-06-22T11:36:31;19.40;;;16.40;;
68438;SDS011;55421;51.600;5.718;2023-06-22T11:38:59;18.40;;;15.90;;
68438;SDS011;55421;51.600;5.718;2023-06-22T11:41:26;18.90;;;15.60;;
68438;SDS011;55421;51.600;5.718;2023-06-22T11:43:52;24.00;;;16.40;;
68438;SDS011;55421;51.600;5.718;2023-06-22T11:46:19;20.60;;;17.20;;
68438;SDS011;55421;51.600;5.718;2023-06-22T11:48:46;21.10;;;18.00;;
68438;SDS011;55421;51.600;5.718;2023-06-22T11:51:12;24.80;;;17.90;;
68438;SDS011;55421;51.600;5.718;2023-06-22T11:53:39;23.10;;;18.50;;
68438;SDS011;55421;51.600;5.718;2023-06-22T11:56:05;21.80;;;18.50;;
68438;SDS011;55421;51.600;5.718;2023-06-22T11:58:32;23.50;;;19.20;;
68438;SDS011;55421;51.600;5.718;2023-06-22T12:00:58;22.80;;;18.80;;
68438;SDS011;55421;51.600;5.718;2023-06-22T12:03:25;20.30;;;17.80;;
68438;SDS011;55421;51.600;5.718;2023-06-22T12:05:51;24.00;;;19.10;;
68438;SDS011;55421;51.600;5.718;2023-06-22T12:08:18;24.10;;;19.70;;
68438;SDS011;55421;51.600;5.718;2023-06-22T12:10:45;24.80;;;19.10;;
68438;SDS011;55421;51.600;5.718;2023-06-22T12:13:11;20.30;;;18.00;;
68438;SDS011;55421;51.600;5.718;2023-06-22T12:15:38;22.10;;;18.90;;
68438;SDS011;55421;51.600;5.718;2023-06-22T12:18:05;21.70;;;19.20;;
68438;SDS011;55421;51.600;5.718;2023-06-22T12:20:32;25.60;;;19.10;;
68438;SDS011;55421;51.600;5.718;2023-06-22T12:22:58;22.80;;;19.30;;
68438;SDS011;55421;51.600;5.718;2023-06-22T12:25:25;21.70;;;18.60;;
68438;SDS011;55421;51.600;5.718;2023-06-22T12:27:51;22.20;;;18.00;;
68438;SDS011;55421;51.600;5.718;2023-06-22T12:30:18;21.20;;;18.00;;
68438;SDS011;55421;51.600;5.718;2023-06-22T12:32:44;22.40;;;18.40;;
68438;SDS011;55421;51.600;5.718;2023-06-22T12:35:11;26.80;;;18.10;;
68438;SDS011;55421;51.600;5.718;2023-06-22T12:37:41;19.10;;;16.40;;
68438;SDS011;55421;51.600;5.718;2023-06-22T12:40:09;22.70;;;18.10;;
68438;SDS011;55421;51.600;5.718;2023-06-22T12:42:36;18.20;;;16.00;;
68438;SDS011;55421;51.600;5.718;2023-06-22T12:45:04;18.10;;;16.20;;
68438;SDS011;55421;51.600;5.718;2023-06-22T12:47:31;18.20;;;16.30;;
68438;SDS011;55421;51.600;5.718;2023-06-22T12:49:57;19.40;;;17.30;;
68438;SDS011;55421;51.600;5.718;2023-06-22T12:52:24;18.90;;;15.60;;
68438;SDS011;55421;51.600;5.718;2023-06-22T12:54:51;18.80;;;16.00;;
68438;SDS011;55421;51.600;5.718;2023-06-22T12:57:18;19.00;;;16.30;;
68438;SDS011;55421;51.600;5.718;2023-06-22T12:59:46;18.40;;;15.80;;
68438;SDS011;55421;51.600;5.718;2023-06-22T13:02:12;18.00;;;15.60;;
68438;SDS011;55421;51.600;5.718;2023-06-22T13:04:39;17.20;;;15.40;;
68438;SDS011;55421;51.600;5.718;2023-06-22T13:07:06;16.90;;;15.10;;
68438;SDS011;55421;51.600;5.718;2023-06-22T13:09:32;17.60;;;15.60;;
68438;SDS011;55421;51.600;5.718;2023-06-22T13:12:01;17.30;;;15.50;;
68438;SDS011;55421;51.600;5.718;2023-06-22T13:14:27;18.20;;;15.10;;
68438;SDS011;55421;51.600;5.718;2023-06-22T13:16:54;20.20;;;14.70;;
68438;SDS011;55421;51.600;5.718;2023-06-22T13:19:20;16.50;;;14.40;;
68438;SDS011;55421;51.600;5.718;2023-06-22T13:21:47;16.90;;;14.90;;
68438;SDS011;55421;51.600;5.718;2023-06-22T13:24:13;16.80;;;14.60;;
68438;SDS011;55421;51.600;5.718;2023-06-22T13:26:40;15.80;;;14.20;;
68438;SDS011;55421;51.600;5.718;2023-06-22T13:29:06;15.90;;;13.90;;
68438;SDS011;55421;51.600;5.718;2023-06-22T13:31:33;15.70;;;13.90;;
68438;SDS011;55421;51.600;5.718;2023-06-22T13:33:59;15.60;;;14.00;;
68438;SDS011;55421;51.600;5.718;2023-06-22T13:36:26;17.10;;;13.80;;
68438;SDS011;55421;51.600;5.718;2023-06-22T13:38:52;16.40;;;14.60;;
68438;SDS011;55421;51.600;5.718;2023-06-22T13:41:19;15.90;;;14.20;;
68438;SDS011;55421;51.600;5.718;2023-06-22T13:43:45;15.90;;;13.80;;
68438;SDS011;55421;51.600;5.718;2023-06-22T13:46:12;15.80;;;14.10;;
68438;SDS011;55421;51.600;5.718;2023-06-22T13:48:38;15.40;;;13.70;;
68438;SDS011;55421;51.600;5.718;2023-06-22T13:51:05;17.70;;;13.80;;
68438;SDS011;55421;51.600;5.718;2023-06-22T13:53:31;17.20;;;13.40;;
68438;SDS011;55421;51.600;5.718;2023-06-22T13:55:58;16.00;;;13.90;;
68438;SDS011;55421;51.600;5.718;2023-06-22T13:58:24;15.30;;;13.70;;
68438;SDS011;55421;51.600;5.718;2023-06-22T14:00:51;16.10;;;13.40;;
68438;SDS011;55421;51.600;5.718;2023-06-22T14:03:17;16.10;;;14.00;;
68438;SDS011;55421;51.600;5.718;2023-06-22T14:05:44;15.90;;;14.20;;
68438;SDS011;55421;51.600;5.718;2023-06-22T14:08:11;15.90;;;14.20;;
68438;SDS011;55421;51.600;5.718;2023-06-22T14:10:38;17.10;;;13.60;;
68438;SDS011;55421;51.600;5.718;2023-06-22T14:13:04;14.60;;;12.20;;
68438;SDS011;55421;51.600;5.718;2023-06-22T14:15:32;14.80;;;13.30;;
68438;SDS011;55421;51.600;5.718;2023-06-22T14:17:58;15.40;;;13.70;;
68438;SDS011;55421;51.600;5.718;2023-06-22T14:20:25;20.10;;;14.10;;
68438;SDS011;55421;51.600;5.718;2023-06-22T14:22:52;16.70;;;14.20;;
68438;SDS011;55421;51.600;5.718;2023-06-22T14:25:18;16.50;;;13.30;;
68438;SDS011;55421;51.600;5.718;2023-06-22T14:27:45;14.30;;;12.30;;
68438;SDS011;55421;51.600;5.718;2023-06-22T14:30:11;16.10;;;12.70;;